Terminal Aerodrome Forecast
Issued by NWS

Home | Current Version | Previous Version | Text Only | Print | Product List | Glossary On
Versions: 1 2 3 4 5 6 7 8 9 10 11 12 13 14 15 16
000
FTUS45 KVEF 062217 AAB
TAFDAG
TAF AMD
KDAG 062217Z 0622/0718 27012G20KT P6SM VCTS SCT120CB
      TEMPO 0622/0623 VRB15G25KT -TSRA
     FM070200 25014KT P6SM FEW120=

USA.gov is the U.S. government's official web portal to all federal, state and local government web resources and services.